地図

経路データ

SID SEASON NUMBER BASIN SUBBASIN NAME ISO_TIME NATURE LAT LON WMO_WIND WMO_PRES WMO_AGENCY TRACK_TYPE DIST2LAND LANDFALL IFLAG USA_AGENCY USA_ATCF_ID USA_LAT USA_LON USA_RECORD USA_STATUS USA_WIND USA_PRES USA_SSHS USA_R34_NE USA_R34_SE USA_R34_SW USA_R34_NW USA_R50_NE USA_R50_SE USA_R50_SW USA_R50_NW USA_R64_NE USA_R64_SE USA_R64_SW USA_R64_NW USA_POCI USA_ROCI USA_RMW USA_EYE TOKYO_LAT TOKYO_LON TOKYO_GRADE TOKYO_WIND TOKYO_PRES TOKYO_R50_DIR TOKYO_R50_LONG TOKYO_R50_SHORT TOKYO_R30_DIR TOKYO_R30_LONG TOKYO_R30_SHORT TOKYO_LAND CMA_LAT CMA_LON CMA_CAT CMA_WIND CMA_PRES HKO_LAT HKO_LON HKO_CAT HKO_WIND HKO_PRES NEWDELHI_LAT NEWDELHI_LON NEWDELHI_GRADE NEWDELHI_WIND NEWDELHI_PRES NEWDELHI_CI NEWDELHI_DP NEWDELHI_POCI REUNION_LAT REUNION_LON REUNION_TYPE REUNION_WIND REUNION_PRES REUNION_TNUM REUNION_CI REUNION_RMW REUNION_R34_NE REUNION_R34_SE REUNION_R34_SW REUNION_R34_NW REUNION_R50_NE REUNION_R50_SE REUNION_R50_SW REUNION_R50_NW REUNION_R64_NE REUNION_R64_SE REUNION_R64_SW REUNION_R64_NW BOM_LAT BOM_LON BOM_TYPE BOM_WIND BOM_PRES BOM_TNUM BOM_CI BOM_RMW BOM_R34_NE BOM_R34_SE BOM_R34_SW BOM_R34_NW BOM_R50_NE BOM_R50_SE BOM_R50_SW BOM_R50_NW BOM_R64_NE BOM_R64_SE BOM_R64_SW BOM_R64_NW BOM_ROCI BOM_POCI BOM_EYE BOM_POS_METHOD BOM_PRES_METHOD NADI_LAT NADI_LON NADI_CAT NADI_WIND NADI_PRES WELLINGTON_LAT WELLINGTON_LON WELLINGTON_WIND WELLINGTON_PRES DS824_LAT DS824_LON DS824_STAGE DS824_WIND DS824_PRES TD9636_LAT TD9636_LON TD9636_STAGE TD9636_WIND TD9636_PRES TD9635_LAT TD9635_LON TD9635_WIND TD9635_PRES TD9635_ROCI NEUMANN_LAT NEUMANN_LON NEUMANN_CLASS NEUMANN_WIND NEUMANN_PRES MLC_LAT MLC_LON MLC_CLASS MLC_WIND MLC_PRES USA_GUST BOM_GUST BOM_GUST_PER REUNION_GUST REUNION_GUST_PER USA_SEAHGT USA_SEARAD_NE USA_SEARAD_SE USA_SEARAD_SW USA_SEARAD_NW STORM_SPEED STORM_DIR
1893240N15113 1893 36 WP MM NOT_NAMED 1893-08-28 04:00:00 NR 15.2000 113.300 main 454 433 __________O___ -1 15.2000 113.300 7 5 269
1893240N15113 1893 36 WP MM NOT_NAMED 1893-08-28 06:00:00 NR 15.1981 113.123 main 433 412 __________P___ -1 15.1981 113.123 7 5 269
1893240N15113 1893 36 WP MM NOT_NAMED 1893-08-28 09:00:00 NR 15.1959 112.868 main 412 380 __________P___ -1 15.1959 112.868 7 5 270
1893240N15113 1893 36 WP MM NOT_NAMED 1893-08-28 12:00:00 NR 15.1955 112.638 main 380 369 __________P___ -1 15.1955 112.638 7 4 270
1893240N15113 1893 36 WP MM NOT_NAMED 1893-08-28 15:00:00 NR 15.1982 112.451 main 369 359 __________P___ -1 15.1982 112.451 7 3 271
1893240N15113 1893 36 WP MM NOT_NAMED 1893-08-28 16:00:00 NR 15.2000 112.400 main 359 348 __________O___ -1 15.2000 112.400 7 3 273
1893240N15113 1893 36 WP MM NOT_NAMED 1893-08-28 18:00:00 NR 15.2055 112.317 main 348 337 __________P___ -1 15.2055 112.317 7 2 277
1893240N15113 1893 36 WP MM NOT_NAMED 1893-08-28 21:00:00 NR 15.2200 112.219 main 337 327 __________P___ -1 15.2200 112.219 7 2 282
1893240N15113 1893 36 WP MM NOT_NAMED 1893-08-29 00:00:00 NR 15.2450 112.116 main 327 318 __________P___ -1 15.2450 112.116 7 3 285
1893240N15113 1893 36 WP MM NOT_NAMED 1893-08-29 03:00:00 NR 15.2836 111.967 main 318 308 __________P___ -1 15.2836 111.967 7 3 285
1893240N15113 1893 36 WP MM NOT_NAMED 1893-08-29 04:00:00 NR 15.3000 111.900 main 308 287 __________O___ -1 15.3000 111.900 7 5 281
1893240N15113 1893 36 WP MM NOT_NAMED 1893-08-29 06:00:00 NR 15.3309 111.718 main 287 259 __________P___ -1 15.3309 111.718 7 6 280
1893240N15113 1893 36 WP MM NOT_NAMED 1893-08-29 09:00:00 NR 15.3895 111.388 main 259 222 __________P___ -1 15.3895 111.388 7 7 281
1893240N15113 1893 36 WP MM NOT_NAMED 1893-08-29 12:00:00 NR 15.4656 111.015 main 222 187 __________P___ -1 15.4656 111.015 7 8 283
1893240N15113 1893 36 WP MM NOT_NAMED 1893-08-29 15:00:00 NR 15.5625 110.628 main 187 177 __________P___ -1 15.5625 110.628 7 8 285
1893240N15113 1893 36 WP MM NOT_NAMED 1893-08-29 16:00:00 NR 15.6000 110.500 main 177 160 __________O___ -1 15.6000 110.500 7 7 289
1893240N15113 1893 36 WP MM NOT_NAMED 1893-08-29 18:00:00 NR 15.6827 110.269 main 160 126 __________P___ -1 15.6827 110.269 7 7 292
1893240N15113 1893 36 WP MM NOT_NAMED 1893-08-29 21:00:00 NR 15.8258 109.923 main 126 116 __________P___ -1 15.8258 109.923 7 7 294
1893240N15113 1893 36 WP MM NOT_NAMED 1893-08-30 00:00:00 NR 15.9834 109.575 main 116 91 __________P___ -1 15.9834 109.575 7 7 295
1893240N15113 1893 36 WP MM NOT_NAMED 1893-08-30 03:00:00 NR 16.1462 109.220 main 91 87 __________P___ -1 16.1462 109.220 7 8 295
1893240N15113 1893 36 WP MM NOT_NAMED 1893-08-30 04:00:00 NR 16.2000 109.100 main 87 63 __________O___ -1 16.2000 109.100 7 8 292
1893240N15113 1893 36 WP MM NOT_NAMED 1893-08-30 06:00:00 NR 16.2921 108.848 main 63 48 __________P___ -1 16.2921 108.848 7 8 291
1893240N15113 1893 36 WP MM NOT_NAMED 1893-08-30 09:00:00 NR 16.4302 108.463 main 48 35 __________P___ -1 16.4302 108.463 7 8 291
1893240N15113 1893 36 WP MM NOT_NAMED 1893-08-30 12:00:00 NR 16.5763 108.081 main 39 15 __________P___ -1 16.5763 108.081 7 8 293
1893240N15113 1893 36 WP MM NOT_NAMED 1893-08-30 15:00:00 NR 16.7399 107.716 main 15 15 __________P___ -1 16.7399 107.716 7 8 296
1893240N15113 1893 36 WP MM NOT_NAMED 1893-08-30 16:00:00 NR 16.8000 107.600 main 22 15 __________O___ -1 16.8000 107.600 7 8 300
1893240N15113 1893 36 WP MM NOT_NAMED 1893-08-30 18:00:00 NR 16.9296 107.378 main 15 0 __________P___ -1 16.9296 107.378 7 7 304
1893240N15113 1893 36 WP MM NOT_NAMED 1893-08-30 21:00:00 NR 17.1443 107.067 main 0 0 __________P___ -1 17.1443 107.067 7 7 308
1893240N15113 1893 36 WP MM NOT_NAMED 1893-08-31 00:00:00 NR 17.3765 106.775 main 10 0 __________P___ -1 17.3765 106.775 7 7 311
1893240N15113 1893 36 WP MM NOT_NAMED 1893-08-31 03:00:00 NR 17.6185 106.493 main 0 0 __________P___ -1 17.6185 106.493 7 7 312
1893240N15113 1893 36 WP MM NOT_NAMED 1893-08-31 04:00:00 NR 17.7000 106.400 main 0 __________O___ -1 17.7000 106.400 7 7 313

デジタル台風データ・検索

IBTrACS Databaseについて

本データベースは、米国NOAAが公開する1842年以降の世界の熱帯低気圧のベストトラックデータアーカイブInternational Best Track Archive for Climate Stewardship (IBTrACS)を、ウェブで閲覧しやすい形式に変換したものです。

最終更新日:2021-10-27